Accueil
METAR-TAF:

METAR-TAF

Aéroports :

Bückeburg, Allemagne

latitude: 52-17N, longitude: 009-05E, altitude: 70 m

Observation

Le bulletin a été fait il y a 24 minutes, à 06:20 UTC
Vent 3 kt de sud
Température 5°C
Humidité 93%
Pression 1034 hPa
Visibilité 10 km ou plus
Ciel couvert à une hauteur de 1400 ft

METAR: ETHB 240620Z 18003KT 9999 OVC014 05/04 Q1034 GRN WHT TEMPO GRN

Heure: 07:44 (06:44 UTC)

Prévision

Le bulletin a été fait il y a 1 heure et 26 minutes, à 05:18 UTC
Prévision valable du 24 à 06 UTC au 24 à 15 UTC
Vent 3 kt de sud/sud-ouest
Visibilité 10 km ou plus
Nuages fragmentés à une hauteur de 2000 ft
Temporairement
du 24 à 06 UTC au 24 à 11 UTC
Vent 2 kt de direction variable
Visibilité: 4000 m
Nuages fragmentés à une hauteur de 1200 ft
faible bruine

TAF: ETHB 240518Z 2406/2415 20003KT 9999 NSW BKN020 TEMPO 2406/2411 VRB02KT 4000 -DZ BKN012

Observations et prévisions météorologiques de plus de 4000 aéroports (messages METAR et TAF).

Les stations disponibles sont représentées par des disques jaunes et rouges sur la carte.

Passer la souris dessus pour voir le nom de la station.

Cliquer dessus pour voir les observations et prévisions météorologiques.

Pour changer de carte: cliquez sur les boutons verts avec une croix noire pour zoomer, sur le bouton vert avec un tiret pour effectuer un zoom arrière, ou sur les flèches vertes pour les cartes adjacentes.


METAR-TAF: